sensor_id;sensor_type;location;lat;lon;timestamp;P1;durP1;ratioP1;P2;durP2;ratioP2
4355;SDS011;64374;51.482;7.408;2023-08-06T00:01:12;5.13;;;3.53;;
4355;SDS011;64374;51.482;7.408;2023-08-06T00:03:41;7.33;;;3.50;;
4355;SDS011;64374;51.482;7.408;2023-08-06T00:06:11;3.67;;;3.30;;
4355;SDS011;64374;51.482;7.408;2023-08-06T00:08:39;6.67;;;3.37;;
4355;SDS011;64374;51.482;7.408;2023-08-06T00:11:07;4.40;;;2.87;;
4355;SDS011;64374;51.482;7.408;2023-08-06T00:13:35;7.20;;;4.50;;
4355;SDS011;64374;51.482;7.408;2023-08-06T00:16:10;4.10;;;3.50;;
4355;SDS011;64374;51.482;7.408;2023-08-06T00:18:39;3.70;;;3.30;;
4355;SDS011;64374;51.482;7.408;2023-08-06T00:21:07;6.33;;;3.17;;
4355;SDS011;64374;51.482;7.408;2023-08-06T00:23:44;5.40;;;3.57;;
4355;SDS011;64374;51.482;7.408;2023-08-06T00:26:12;6.03;;;2.73;;
4355;SDS011;64374;51.482;7.408;2023-08-06T00:28:50;11.27;;;3.23;;
4355;SDS011;64374;51.482;7.408;2023-08-06T00:31:18;10.27;;;3.03;;
4355;SDS011;64374;51.482;7.408;2023-08-06T00:33:46;13.23;;;4.10;;
4355;SDS011;64374;51.482;7.408;2023-08-06T00:36:18;3.87;;;3.07;;
4355;SDS011;64374;51.482;7.408;2023-08-06T00:38:49;5.20;;;3.17;;
4355;SDS011;64374;51.482;7.408;2023-08-06T00:41:18;3.57;;;3.27;;
4355;SDS011;64374;51.482;7.408;2023-08-06T00:43:46;3.87;;;3.57;;
4355;SDS011;64374;51.482;7.408;2023-08-06T00:46:14;4.93;;;3.50;;
4355;SDS011;64374;51.482;7.408;2023-08-06T00:48:45;5.47;;;3.97;;
4355;SDS011;64374;51.482;7.408;2023-08-06T00:51:14;3.30;;;3.03;;
4355;SDS011;64374;51.482;7.408;2023-08-06T00:53:44;7.60;;;3.37;;
4355;SDS011;64374;51.482;7.408;2023-08-06T00:56:20;4.30;;;3.30;;
4355;SDS011;64374;51.482;7.408;2023-08-06T00:58:48;5.50;;;2.60;;
4355;SDS011;64374;51.482;7.408;2023-08-06T01:01:16;5.10;;;3.00;;
4355;SDS011;64374;51.482;7.408;2023-08-06T01:03:44;3.80;;;3.37;;
4355;SDS011;64374;51.482;7.408;2023-08-06T01:06:13;4.90;;;3.30;;
4355;SDS011;64374;51.482;7.408;2023-08-06T01:08:52;5.20;;;3.50;;
4355;SDS011;64374;51.482;7.408;2023-08-06T01:11:37;2.70;;;2.50;;
4355;SDS011;64374;51.482;7.408;2023-08-06T01:14:13;6.83;;;3.57;;
4355;SDS011;64374;51.482;7.408;2023-08-06T01:16:48;8.17;;;3.80;;
4355;SDS011;64374;51.482;7.408;2023-08-06T01:19:21;6.23;;;4.03;;
4355;SDS011;64374;51.482;7.408;2023-08-06T01:21:50;5.40;;;3.30;;
4355;SDS011;64374;51.482;7.408;2023-08-06T01:24:21;5.67;;;3.73;;
4355;SDS011;64374;51.482;7.408;2023-08-06T01:26:51;5.13;;;3.40;;
4355;SDS011;64374;51.482;7.408;2023-08-06T01:29:34;3.80;;;3.03;;
4355;SDS011;64374;51.482;7.408;2023-08-06T01:32:06;4.70;;;2.80;;
4355;SDS011;64374;51.482;7.408;2023-08-06T01:34:39;4.70;;;3.00;;
4355;SDS011;64374;51.482;7.408;2023-08-06T01:37:10;3.87;;;3.13;;
4355;SDS011;64374;51.482;7.408;2023-08-06T01:39:40;6.07;;;3.50;;
4355;SDS011;64374;51.482;7.408;2023-08-06T01:42:10;4.70;;;3.17;;
4355;SDS011;64374;51.482;7.408;2023-08-06T01:44:41;3.30;;;3.00;;
4355;SDS011;64374;51.482;7.408;2023-08-06T01:47:12;3.63;;;3.00;;
4355;SDS011;64374;51.482;7.408;2023-08-06T01:49:40;6.93;;;3.10;;
4355;SDS011;64374;51.482;7.408;2023-08-06T01:52:08;3.20;;;2.60;;
4355;SDS011;64374;51.482;7.408;2023-08-06T01:54:38;3.10;;;2.63;;
4355;SDS011;64374;51.482;7.408;2023-08-06T01:57:11;7.60;;;3.03;;
4355;SDS011;64374;51.482;7.408;2023-08-06T01:59:39;4.43;;;3.17;;
4355;SDS011;64374;51.482;7.408;2023-08-06T02:02:08;6.77;;;3.30;;
4355;SDS011;64374;51.482;7.408;2023-08-06T02:04:36;7.17;;;3.43;;
4355;SDS011;64374;51.482;7.408;2023-08-06T02:07:04;2.93;;;2.73;;
4355;SDS011;64374;51.482;7.408;2023-08-06T02:09:35;7.07;;;3.70;;
4355;SDS011;64374;51.482;7.408;2023-08-06T02:12:07;5.17;;;3.60;;
4355;SDS011;64374;51.482;7.408;2023-08-06T02:14:35;7.67;;;3.70;;
4355;SDS011;64374;51.482;7.408;2023-08-06T02:17:05;4.80;;;3.23;;
4355;SDS011;64374;51.482;7.408;2023-08-06T02:19:34;5.40;;;3.43;;
4355;SDS011;64374;51.482;7.408;2023-08-06T02:22:02;3.77;;;3.43;;
4355;SDS011;64374;51.482;7.408;2023-08-06T02:24:30;7.43;;;3.70;;
4355;SDS011;64374;51.482;7.408;2023-08-06T02:27:00;4.13;;;3.73;;
4355;SDS011;64374;51.482;7.408;2023-08-06T02:29:29;3.83;;;3.50;;
4355;SDS011;64374;51.482;7.408;2023-08-06T02:31:57;9.13;;;4.23;;
4355;SDS011;64374;51.482;7.408;2023-08-06T02:34:27;5.83;;;3.80;;
4355;SDS011;64374;51.482;7.408;2023-08-06T02:36:57;4.50;;;3.47;;
4355;SDS011;64374;51.482;7.408;2023-08-06T02:39:26;3.60;;;3.30;;
4355;SDS011;64374;51.482;7.408;2023-08-06T02:41:54;4.43;;;3.10;;
4355;SDS011;64374;51.482;7.408;2023-08-06T02:44:31;5.03;;;3.70;;
4355;SDS011;64374;51.482;7.408;2023-08-06T02:47:01;3.97;;;3.67;;
4355;SDS011;64374;51.482;7.408;2023-08-06T02:49:29;4.97;;;3.33;;
4355;SDS011;64374;51.482;7.408;2023-08-06T02:51:57;7.20;;;4.07;;
4355;SDS011;64374;51.482;7.408;2023-08-06T02:54:25;6.30;;;3.30;;
4355;SDS011;64374;51.482;7.408;2023-08-06T02:56:54;7.13;;;3.50;;
4355;SDS011;64374;51.482;7.408;2023-08-06T02:59:28;4.73;;;3.47;;
4355;SDS011;64374;51.482;7.408;2023-08-06T03:02:19;4.10;;;3.77;;
4355;SDS011;64374;51.482;7.408;2023-08-06T03:05:22;3.80;;;3.20;;
4355;SDS011;64374;51.482;7.408;2023-08-06T03:07:51;8.73;;;4.20;;
4355;SDS011;64374;51.482;7.408;2023-08-06T03:10:25;4.80;;;3.80;;
4355;SDS011;64374;51.482;7.408;2023-08-06T03:12:57;3.77;;;3.10;;
4355;SDS011;64374;51.482;7.408;2023-08-06T03:15:26;6.17;;;4.20;;
4355;SDS011;64374;51.482;7.408;2023-08-06T03:17:55;2.90;;;2.70;;
4355;SDS011;64374;51.482;7.408;2023-08-06T03:20:24;4.67;;;3.53;;
4355;SDS011;64374;51.482;7.408;2023-08-06T03:22:55;5.80;;;3.90;;
4355;SDS011;64374;51.482;7.408;2023-08-06T03:25:23;5.20;;;4.00;;
4355;SDS011;64374;51.482;7.408;2023-08-06T03:27:51;7.20;;;3.67;;
4355;SDS011;64374;51.482;7.408;2023-08-06T03:30:19;10.27;;;4.30;;
4355;SDS011;64374;51.482;7.408;2023-08-06T03:32:54;7.67;;;3.50;;
4355;SDS011;64374;51.482;7.408;2023-08-06T03:35:22;3.37;;;3.00;;
4355;SDS011;64374;51.482;7.408;2023-08-06T03:37:51;4.73;;;3.17;;
4355;SDS011;64374;51.482;7.408;2023-08-06T03:40:23;9.50;;;4.17;;
4355;SDS011;64374;51.482;7.408;2023-08-06T03:42:59;6.83;;;3.93;;
4355;SDS011;64374;51.482;7.408;2023-08-06T03:45:30;3.33;;;3.13;;
4355;SDS011;64374;51.482;7.408;2023-08-06T03:47:59;3.90;;;3.50;;
4355;SDS011;64374;51.482;7.408;2023-08-06T03:50:30;3.37;;;3.10;;
4355;SDS011;64374;51.482;7.408;2023-08-06T03:52:58;4.33;;;3.40;;
4355;SDS011;64374;51.482;7.408;2023-08-06T03:55:28;7.73;;;3.70;;
4355;SDS011;64374;51.482;7.408;2023-08-06T03:57:59;3.30;;;2.80;;
4355;SDS011;64374;51.482;7.408;2023-08-06T04:00:31;4.13;;;3.37;;
4355;SDS011;64374;51.482;7.408;2023-08-06T04:03:01;3.50;;;3.20;;
4355;SDS011;64374;51.482;7.408;2023-08-06T04:05:30;4.83;;;3.53;;
4355;SDS011;64374;51.482;7.408;2023-08-06T04:08:07;6.33;;;2.83;;
4355;SDS011;64374;51.482;7.408;2023-08-06T04:10:35;3.70;;;2.87;;
4355;SDS011;64374;51.482;7.408;2023-08-06T04:13:04;3.57;;;3.07;;
4355;SDS011;64374;51.482;7.408;2023-08-06T04:15:33;4.13;;;3.53;;
4355;SDS011;64374;51.482;7.408;2023-08-06T04:18:06;6.63;;;3.47;;
4355;SDS011;64374;51.482;7.408;2023-08-06T04:20:35;5.23;;;3.60;;
4355;SDS011;64374;51.482;7.408;2023-08-06T04:23:10;4.00;;;3.60;;
4355;SDS011;64374;51.482;7.408;2023-08-06T04:25:38;4.70;;;3.73;;
4355;SDS011;64374;51.482;7.408;2023-08-06T04:28:07;4.03;;;3.67;;
4355;SDS011;64374;51.482;7.408;2023-08-06T04:30:37;4.27;;;3.30;;
4355;SDS011;64374;51.482;7.408;2023-08-06T04:33:14;4.53;;;3.80;;
4355;SDS011;64374;51.482;7.408;2023-08-06T04:35:46;4.90;;;3.83;;
4355;SDS011;64374;51.482;7.408;2023-08-06T04:38:14;2.70;;;2.50;;
4355;SDS011;64374;51.482;7.408;2023-08-06T04:40:42;8.30;;;3.40;;
4355;SDS011;64374;51.482;7.408;2023-08-06T04:43:15;5.97;;;4.10;;
4355;SDS011;64374;51.482;7.408;2023-08-06T04:45:45;4.97;;;3.80;;
4355;SDS011;64374;51.482;7.408;2023-08-06T04:48:15;4.07;;;3.37;;
4355;SDS011;64374;51.482;7.408;2023-08-06T04:50:44;7.27;;;3.40;;
4355;SDS011;64374;51.482;7.408;2023-08-06T04:53:12;6.23;;;3.13;;
4355;SDS011;64374;51.482;7.408;2023-08-06T04:55:40;6.77;;;3.10;;
4355;SDS011;64374;51.482;7.408;2023-08-06T04:58:09;3.70;;;3.37;;
4355;SDS011;64374;51.482;7.408;2023-08-06T05:00:40;3.30;;;3.00;;
4355;SDS011;64374;51.482;7.408;2023-08-06T05:03:08;5.77;;;2.67;;
4355;SDS011;64374;51.482;7.408;2023-08-06T05:05:38;5.50;;;3.20;;
4355;SDS011;64374;51.482;7.408;2023-08-06T05:08:13;4.77;;;3.07;;
4355;SDS011;64374;51.482;7.408;2023-08-06T05:10:43;3.30;;;3.00;;
4355;SDS011;64374;51.482;7.408;2023-08-06T05:13:11;3.50;;;3.20;;
4355;SDS011;64374;51.482;7.408;2023-08-06T05:15:39;4.73;;;3.10;;
4355;SDS011;64374;51.482;7.408;2023-08-06T05:18:11;4.63;;;3.70;;
4355;SDS011;64374;51.482;7.408;2023-08-06T05:20:41;3.77;;;2.97;;
4355;SDS011;64374;51.482;7.408;2023-08-06T05:23:10;3.93;;;3.20;;
4355;SDS011;64374;51.482;7.408;2023-08-06T05:25:38;4.03;;;2.97;;
4355;SDS011;64374;51.482;7.408;2023-08-06T05:28:14;8.13;;;2.80;;
4355;SDS011;64374;51.482;7.408;2023-08-06T05:30:43;4.33;;;3.20;;
4355;SDS011;64374;51.482;7.408;2023-08-06T05:33:15;4.77;;;3.00;;
4355;SDS011;64374;51.482;7.408;2023-08-06T05:35:54;4.90;;;2.97;;
4355;SDS011;64374;51.482;7.408;2023-08-06T05:38:24;10.03;;;3.40;;
4355;SDS011;64374;51.482;7.408;2023-08-06T05:40:53;3.20;;;2.90;;
4355;SDS011;64374;51.482;7.408;2023-08-06T05:43:21;4.30;;;3.20;;
4355;SDS011;64374;51.482;7.408;2023-08-06T05:45:53;5.60;;;3.37;;
4355;SDS011;64374;51.482;7.408;2023-08-06T05:48:21;5.80;;;3.47;;
4355;SDS011;64374;51.482;7.408;2023-08-06T05:50:51;3.70;;;2.97;;
4355;SDS011;64374;51.482;7.408;2023-08-06T05:53:23;3.37;;;3.17;;
4355;SDS011;64374;51.482;7.408;2023-08-06T05:55:54;4.27;;;3.53;;
4355;SDS011;64374;51.482;7.408;2023-08-06T05:58:22;7.23;;;3.47;;
4355;SDS011;64374;51.482;7.408;2023-08-06T06:00:52;6.30;;;3.20;;
4355;SDS011;64374;51.482;7.408;2023-08-06T06:03:23;7.13;;;3.77;;
4355;SDS011;64374;51.482;7.408;2023-08-06T06:05:51;3.50;;;3.20;;
4355;SDS011;64374;51.482;7.408;2023-08-06T06:08:19;5.07;;;3.03;;
4355;SDS011;64374;51.482;7.408;2023-08-06T06:10:49;3.53;;;3.20;;
4355;SDS011;64374;51.482;7.408;2023-08-06T06:13:24;13.70;;;3.67;;
4355;SDS011;64374;51.482;7.408;2023-08-06T06:15:53;3.87;;;3.50;;
4355;SDS011;64374;51.482;7.408;2023-08-06T06:18:22;3.83;;;3.23;;
4355;SDS011;64374;51.482;7.408;2023-08-06T06:20:52;5.30;;;3.50;;
4355;SDS011;64374;51.482;7.408;2023-08-06T06:23:23;3.57;;;3.27;;
4355;SDS011;64374;51.482;7.408;2023-08-06T06:25:52;3.40;;;2.83;;
4355;SDS011;64374;51.482;7.408;2023-08-06T06:28:22;5.23;;;3.30;;
4355;SDS011;64374;51.482;7.408;2023-08-06T06:30:51;3.03;;;2.73;;
4355;SDS011;64374;51.482;7.408;2023-08-06T06:33:19;3.63;;;3.10;;
4355;SDS011;64374;51.482;7.408;2023-08-06T06:35:47;2.60;;;2.40;;
4355;SDS011;64374;51.482;7.408;2023-08-06T06:38:16;4.00;;;2.87;;
4355;SDS011;64374;51.482;7.408;2023-08-06T06:40:54;3.23;;;2.93;;
4355;SDS011;64374;51.482;7.408;2023-08-06T06:43:23;4.37;;;2.90;;
4355;SDS011;64374;51.482;7.408;2023-08-06T06:45:55;6.30;;;2.80;;
4355;SDS011;64374;51.482;7.408;2023-08-06T06:48:25;4.60;;;2.83;;
4355;SDS011;64374;51.482;7.408;2023-08-06T06:50:54;3.07;;;2.70;;
4355;SDS011;64374;51.482;7.408;2023-08-06T06:53:23;9.50;;;8.33;;
4355;SDS011;64374;51.482;7.408;2023-08-06T06:55:55;20.33;;;12.87;;
4355;SDS011;64374;51.482;7.408;2023-08-06T06:58:28;3.87;;;3.30;;
4355;SDS011;64374;51.482;7.408;2023-08-06T07:00:57;5.63;;;3.37;;
4355;SDS011;64374;51.482;7.408;2023-08-06T07:03:25;8.03;;;3.13;;
4355;SDS011;64374;51.482;7.408;2023-08-06T07:05:56;4.27;;;3.07;;
4355;SDS011;64374;51.482;7.408;2023-08-06T07:08:25;3.47;;;2.97;;
4355;SDS011;64374;51.482;7.408;2023-08-06T07:11:00;6.00;;;3.40;;
4355;SDS011;64374;51.482;7.408;2023-08-06T07:13:29;4.07;;;3.60;;
4355;SDS011;64374;51.482;7.408;2023-08-06T07:16:00;4.60;;;3.40;;
4355;SDS011;64374;51.482;7.408;2023-08-06T07:18:28;6.97;;;3.43;;
4355;SDS011;64374;51.482;7.408;2023-08-06T07:20:57;7.60;;;3.00;;
4355;SDS011;64374;51.482;7.408;2023-08-06T07:23:31;6.00;;;2.50;;
4355;SDS011;64374;51.482;7.408;2023-08-06T07:26:03;5.17;;;3.03;;
4355;SDS011;64374;51.482;7.408;2023-08-06T07:28:32;2.70;;;2.40;;
4355;SDS011;64374;51.482;7.408;2023-08-06T07:31:00;7.30;;;3.20;;
4355;SDS011;64374;51.482;7.408;2023-08-06T07:33:35;2.73;;;2.53;;
4355;SDS011;64374;51.482;7.408;2023-08-06T07:36:07;5.70;;;2.60;;
4355;SDS011;64374;51.482;7.408;2023-08-06T07:38:36;4.30;;;2.83;;
4355;SDS011;64374;51.482;7.408;2023-08-06T07:41:06;3.40;;;2.37;;
4355;SDS011;64374;51.482;7.408;2023-08-06T07:43:35;10.80;;;3.63;;
4355;SDS011;64374;51.482;7.408;2023-08-06T07:46:03;3.17;;;2.87;;
4355;SDS011;64374;51.482;7.408;2023-08-06T07:48:32;4.30;;;3.30;;
4355;SDS011;64374;51.482;7.408;2023-08-06T07:51:00;4.23;;;3.07;;
4355;SDS011;64374;51.482;7.408;2023-08-06T07:53:28;4.70;;;3.20;;
4355;SDS011;64374;51.482;7.408;2023-08-06T07:55:57;2.70;;;2.50;;
4355;SDS011;64374;51.482;7.408;2023-08-06T07:58:31;3.27;;;2.37;;
4355;SDS011;64374;51.482;7.408;2023-08-06T08:00:59;3.53;;;2.83;;
4355;SDS011;64374;51.482;7.408;2023-08-06T08:03:31;4.83;;;3.13;;
4355;SDS011;64374;51.482;7.408;2023-08-06T08:05:59;5.80;;;2.67;;
4355;SDS011;64374;51.482;7.408;2023-08-06T08:08:30;6.83;;;3.30;;
4355;SDS011;64374;51.482;7.408;2023-08-06T08:11:05;3.10;;;2.30;;
4355;SDS011;64374;51.482;7.408;2023-08-06T08:13:35;6.63;;;3.20;;
4355;SDS011;64374;51.482;7.408;2023-08-06T08:16:11;4.63;;;3.20;;
4355;SDS011;64374;51.482;7.408;2023-08-06T08:18:46;4.03;;;2.83;;
4355;SDS011;64374;51.482;7.408;2023-08-06T08:21:14;4.53;;;3.00;;
4355;SDS011;64374;51.482;7.408;2023-08-06T08:23:42;6.73;;;2.67;;
4355;SDS011;64374;51.482;7.408;2023-08-06T08:26:12;4.40;;;3.23;;
4355;SDS011;64374;51.482;7.408;2023-08-06T08:28:41;5.13;;;2.33;;
4355;SDS011;64374;51.482;7.408;2023-08-06T08:31:10;5.03;;;2.30;;
4355;SDS011;64374;51.482;7.408;2023-08-06T08:33:38;4.80;;;2.10;;
4355;SDS011;64374;51.482;7.408;2023-08-06T08:36:07;3.20;;;2.33;;
4355;SDS011;64374;51.482;7.408;2023-08-06T08:38:36;6.97;;;2.50;;
4355;SDS011;64374;51.482;7.408;2023-08-06T08:41:05;2.50;;;2.17;;
4355;SDS011;64374;51.482;7.408;2023-08-06T08:43:36;3.57;;;2.60;;
4355;SDS011;64374;51.482;7.408;2023-08-06T08:46:09;3.83;;;2.50;;
4355;SDS011;64374;51.482;7.408;2023-08-06T08:48:42;3.23;;;2.60;;
4355;SDS011;64374;51.482;7.408;2023-08-06T08:51:12;4.37;;;2.67;;
4355;SDS011;64374;51.482;7.408;2023-08-06T08:53:41;2.43;;;2.10;;
4355;SDS011;64374;51.482;7.408;2023-08-06T08:56:11;1.80;;;1.70;;
4355;SDS011;64374;51.482;7.408;2023-08-06T08:58:40;6.13;;;2.13;;
4355;SDS011;64374;51.482;7.408;2023-08-06T09:01:12;4.43;;;2.00;;
4355;SDS011;64374;51.482;7.408;2023-08-06T09:03:40;2.63;;;2.40;;
4355;SDS011;64374;51.482;7.408;2023-08-06T09:06:13;3.50;;;2.10;;
4355;SDS011;64374;51.482;7.408;2023-08-06T09:08:50;2.40;;;2.20;;
4355;SDS011;64374;51.482;7.408;2023-08-06T09:11:24;2.73;;;2.00;;
4355;SDS011;64374;51.482;7.408;2023-08-06T09:13:53;9.50;;;2.57;;
4355;SDS011;64374;51.482;7.408;2023-08-06T09:16:24;4.60;;;2.93;;
4355;SDS011;64374;51.482;7.408;2023-08-06T09:18:53;8.33;;;2.37;;
4355;SDS011;64374;51.482;7.408;2023-08-06T09:21:21;2.40;;;2.17;;
4355;SDS011;64374;51.482;7.408;2023-08-06T09:23:50;5.77;;;2.00;;
4355;SDS011;64374;51.482;7.408;2023-08-06T09:26:21;5.23;;;2.00;;
4355;SDS011;64374;51.482;7.408;2023-08-06T09:28:52;2.17;;;1.20;;
4355;SDS011;64374;51.482;7.408;2023-08-06T09:31:26;3.37;;;1.67;;
4355;SDS011;64374;51.482;7.408;2023-08-06T09:34:06;4.83;;;1.50;;
4355;SDS011;64374;51.482;7.408;2023-08-06T09:36:40;2.13;;;1.60;;
4355;SDS011;64374;51.482;7.408;2023-08-06T09:39:13;2.00;;;1.80;;
4355;SDS011;64374;51.482;7.408;2023-08-06T09:41:43;3.47;;;2.50;;
4355;SDS011;64374;51.482;7.408;2023-08-06T09:44:15;3.60;;;2.60;;
4355;SDS011;64374;51.482;7.408;2023-08-06T09:46:49;5.03;;;2.30;;
4355;SDS011;64374;51.482;7.408;2023-08-06T09:49:18;4.20;;;2.23;;
4355;SDS011;64374;51.482;7.408;2023-08-06T09:51:54;3.17;;;2.27;;
4355;SDS011;64374;51.482;7.408;2023-08-06T09:54:26;3.77;;;2.40;;
4355;SDS011;64374;51.482;7.408;2023-08-06T09:56:58;5.77;;;2.73;;
4355;SDS011;64374;51.482;7.408;2023-08-06T09:59:27;4.70;;;2.50;;
4355;SDS011;64374;51.482;7.408;2023-08-06T10:01:57;2.87;;;2.60;;
4355;SDS011;64374;51.482;7.408;2023-08-06T10:04:26;4.13;;;3.33;;
4355;SDS011;64374;51.482;7.408;2023-08-06T10:07:06;3.13;;;2.93;;
4355;SDS011;64374;51.482;7.408;2023-08-06T10:09:35;4.90;;;3.17;;
4355;SDS011;64374;51.482;7.408;2023-08-06T10:12:06;3.90;;;3.50;;
4355;SDS011;64374;51.482;7.408;2023-08-06T10:14:36;5.00;;;3.07;;
4355;SDS011;64374;51.482;7.408;2023-08-06T10:17:09;5.43;;;2.70;;
4355;SDS011;64374;51.482;7.408;2023-08-06T10:19:38;2.53;;;1.80;;
4355;SDS011;64374;51.482;7.408;2023-08-06T10:22:08;3.50;;;2.60;;
4355;SDS011;64374;51.482;7.408;2023-08-06T10:24:47;5.70;;;2.13;;
4355;SDS011;64374;51.482;7.408;2023-08-06T10:27:19;2.73;;;2.53;;
4355;SDS011;64374;51.482;7.408;2023-08-06T10:29:49;3.20;;;3.00;;
4355;SDS011;64374;51.482;7.408;2023-08-06T10:32:19;4.47;;;3.17;;
4355;SDS011;64374;51.482;7.408;2023-08-06T10:34:58;4.93;;;3.33;;
4355;SDS011;64374;51.482;7.408;2023-08-06T10:37:34;4.50;;;3.23;;
4355;SDS011;64374;51.482;7.408;2023-08-06T10:40:03;6.97;;;4.20;;
4355;SDS011;64374;51.482;7.408;2023-08-06T10:42:34;4.60;;;3.20;;
4355;SDS011;64374;51.482;7.408;2023-08-06T10:45:12;8.70;;;3.47;;
4355;SDS011;64374;51.482;7.408;2023-08-06T10:47:45;3.50;;;3.20;;
4355;SDS011;64374;51.482;7.408;2023-08-06T10:50:17;5.03;;;2.93;;
4355;SDS011;64374;51.482;7.408;2023-08-06T10:52:46;4.83;;;3.37;;
4355;SDS011;64374;51.482;7.408;2023-08-06T10:55:21;7.53;;;2.53;;
4355;SDS011;64374;51.482;7.408;2023-08-06T10:57:53;2.83;;;2.53;;
4355;SDS011;64374;51.482;7.408;2023-08-06T11:00:22;4.13;;;3.10;;
4355;SDS011;64374;51.482;7.408;2023-08-06T11:02:52;3.00;;;2.77;;
4355;SDS011;64374;51.482;7.408;2023-08-06T11:05:21;3.10;;;2.80;;
4355;SDS011;64374;51.482;7.408;2023-08-06T11:07:50;4.27;;;2.80;;
4355;SDS011;64374;51.482;7.408;2023-08-06T11:10:19;5.93;;;3.00;;
4355;SDS011;64374;51.482;7.408;2023-08-06T11:12:50;6.13;;;3.20;;
4355;SDS011;64374;51.482;7.408;2023-08-06T11:15:42;6.80;;;4.80;;
4355;SDS011;64374;51.482;7.408;2023-08-06T11:18:14;4.07;;;3.23;;
4355;SDS011;64374;51.482;7.408;2023-08-06T11:20:42;4.90;;;3.60;;
4355;SDS011;64374;51.482;7.408;2023-08-06T11:23:27;2.80;;;2.60;;
4355;SDS011;64374;51.482;7.408;2023-08-06T11:25:56;4.73;;;2.53;;
4355;SDS011;64374;51.482;7.408;2023-08-06T11:28:28;3.93;;;3.00;;
4355;SDS011;64374;51.482;7.408;2023-08-06T11:30:57;5.67;;;2.20;;
4355;SDS011;64374;51.482;7.408;2023-08-06T11:33:30;3.23;;;1.83;;
4355;SDS011;64374;51.482;7.408;2023-08-06T11:35:59;2.97;;;2.43;;
4355;SDS011;64374;51.482;7.408;2023-08-06T11:38:29;3.33;;;2.57;;
4355;SDS011;64374;51.482;7.408;2023-08-06T11:40:57;2.93;;;2.00;;
4355;SDS011;64374;51.482;7.408;2023-08-06T11:43:25;2.57;;;2.33;;
4355;SDS011;64374;51.482;7.408;2023-08-06T11:45:57;3.20;;;2.57;;
4355;SDS011;64374;51.482;7.408;2023-08-06T11:48:26;2.80;;;2.20;;
4355;SDS011;64374;51.482;7.408;2023-08-06T11:51:00;2.93;;;2.73;;
4355;SDS011;64374;51.482;7.408;2023-08-06T11:53:28;2.43;;;2.23;;
4355;SDS011;64374;51.482;7.408;2023-08-06T11:55:59;4.60;;;2.90;;
4355;SDS011;64374;51.482;7.408;2023-08-06T11:58:28;2.93;;;2.60;;
4355;SDS011;64374;51.482;7.408;2023-08-06T12:01:05;3.10;;;2.40;;
4355;SDS011;64374;51.482;7.408;2023-08-06T12:03:40;5.73;;;2.17;;
4355;SDS011;64374;51.482;7.408;2023-08-06T12:06:12;3.00;;;2.57;;
4355;SDS011;64374;51.482;7.408;2023-08-06T12:08:43;2.60;;;2.40;;
4355;SDS011;64374;51.482;7.408;2023-08-06T12:11:14;2.87;;;2.57;;
4355;SDS011;64374;51.482;7.408;2023-08-06T12:13:42;2.47;;;2.33;;
4355;SDS011;64374;51.482;7.408;2023-08-06T12:16:11;3.23;;;3.00;;
4355;SDS011;64374;51.482;7.408;2023-08-06T12:18:40;3.53;;;2.80;;
4355;SDS011;64374;51.482;7.408;2023-08-06T12:21:10;3.60;;;3.30;;
4355;SDS011;64374;51.482;7.408;2023-08-06T12:23:40;3.77;;;3.33;;
4355;SDS011;64374;51.482;7.408;2023-08-06T12:26:08;5.50;;;5.00;;
4355;SDS011;64374;51.482;7.408;2023-08-06T12:28:39;14.13;;;6.90;;
4355;SDS011;64374;51.482;7.408;2023-08-06T12:31:07;6.50;;;5.23;;
4355;SDS011;64374;51.482;7.408;2023-08-06T12:33:35;7.70;;;6.10;;
4355;SDS011;64374;51.482;7.408;2023-08-06T12:36:03;5.30;;;4.80;;
4355;SDS011;64374;51.482;7.408;2023-08-06T12:38:33;6.27;;;5.73;;
4355;SDS011;64374;51.482;7.408;2023-08-06T12:41:01;6.40;;;4.80;;
4355;SDS011;64374;51.482;7.408;2023-08-06T12:43:29;5.30;;;4.80;;
4355;SDS011;64374;51.482;7.408;2023-08-06T12:45:57;4.67;;;4.27;;
4355;SDS011;64374;51.482;7.408;2023-08-06T12:48:26;5.33;;;4.83;;
4355;SDS011;64374;51.482;7.408;2023-08-06T12:50:54;4.77;;;4.37;;
4355;SDS011;64374;51.482;7.408;2023-08-06T12:53:23;5.77;;;4.70;;
4355;SDS011;64374;51.482;7.408;2023-08-06T12:55:52;5.60;;;4.60;;
4355;SDS011;64374;51.482;7.408;2023-08-06T12:58:21;4.90;;;4.50;;
4355;SDS011;64374;51.482;7.408;2023-08-06T13:00:51;2.80;;;2.60;;
4355;SDS011;64374;51.482;7.408;2023-08-06T13:03:21;2.63;;;2.37;;
4355;SDS011;64374;51.482;7.408;2023-08-06T13:05:59;2.60;;;2.50;;
4355;SDS011;64374;51.482;7.408;2023-08-06T13:08:27;2.37;;;2.17;;
4355;SDS011;64374;51.482;7.408;2023-08-06T13:11:01;2.17;;;1.50;;
4355;SDS011;64374;51.482;7.408;2023-08-06T13:13:31;3.23;;;1.23;;
4355;SDS011;64374;51.482;7.408;2023-08-06T13:15:59;1.60;;;1.40;;
4355;SDS011;64374;51.482;7.408;2023-08-06T13:18:28;1.43;;;1.00;;
4355;SDS011;64374;51.482;7.408;2023-08-06T13:20:57;1.30;;;1.20;;
4355;SDS011;64374;51.482;7.408;2023-08-06T13:23:25;2.33;;;1.10;;
4355;SDS011;64374;51.482;7.408;2023-08-06T13:25:55;4.30;;;1.00;;
4355;SDS011;64374;51.482;7.408;2023-08-06T13:28:26;1.30;;;1.20;;
4355;SDS011;64374;51.482;7.408;2023-08-06T13:30:54;0.87;;;0.80;;
4355;SDS011;64374;51.482;7.408;2023-08-06T13:33:22;0.70;;;0.70;;
4355;SDS011;64374;51.482;7.408;2023-08-06T13:35:51;1.17;;;0.90;;
4355;SDS011;64374;51.482;7.408;2023-08-06T13:38:20;1.10;;;0.93;;
4355;SDS011;64374;51.482;7.408;2023-08-06T13:40:48;1.13;;;0.90;;
4355;SDS011;64374;51.482;7.408;2023-08-06T13:43:16;1.10;;;0.80;;
4355;SDS011;64374;51.482;7.408;2023-08-06T13:45:54;0.70;;;0.60;;
4355;SDS011;64374;51.482;7.408;2023-08-06T13:48:22;1.13;;;0.80;;
4355;SDS011;64374;51.482;7.408;2023-08-06T13:50:50;0.70;;;0.70;;
4355;SDS011;64374;51.482;7.408;2023-08-06T13:53:21;0.70;;;0.70;;
4355;SDS011;64374;51.482;7.408;2023-08-06T13:55:49;2.63;;;0.90;;
4355;SDS011;64374;51.482;7.408;2023-08-06T13:58:17;0.60;;;0.60;;
4355;SDS011;64374;51.482;7.408;2023-08-06T14:00:45;0.93;;;0.83;;
4355;SDS011;64374;51.482;7.408;2023-08-06T14:03:15;0.80;;;0.80;;
4355;SDS011;64374;51.482;7.408;2023-08-06T14:05:43;0.77;;;0.77;;
4355;SDS011;64374;51.482;7.408;2023-08-06T14:08:11;0.70;;;0.70;;
4355;SDS011;64374;51.482;7.408;2023-08-06T14:10:42;0.87;;;0.80;;
4355;SDS011;64374;51.482;7.408;2023-08-06T14:13:10;1.10;;;1.00;;
4355;SDS011;64374;51.482;7.408;2023-08-06T14:15:39;1.37;;;1.27;;
4355;SDS011;64374;51.482;7.408;2023-08-06T14:18:07;2.63;;;1.10;;
4355;SDS011;64374;51.482;7.408;2023-08-06T14:20:37;1.13;;;1.03;;
4355;SDS011;64374;51.482;7.408;2023-08-06T14:23:05;1.07;;;0.97;;
4355;SDS011;64374;51.482;7.408;2023-08-06T14:25:35;1.80;;;1.70;;
4355;SDS011;64374;51.482;7.408;2023-08-06T14:28:07;1.13;;;1.03;;
4355;SDS011;64374;51.482;7.408;2023-08-06T14:30:36;1.30;;;1.20;;
4355;SDS011;64374;51.482;7.408;2023-08-06T14:33:04;5.07;;;1.50;;
4355;SDS011;64374;51.482;7.408;2023-08-06T14:35:53;1.53;;;1.43;;
4355;SDS011;64374;51.482;7.408;2023-08-06T14:38:22;1.20;;;1.10;;
4355;SDS011;64374;51.482;7.408;2023-08-06T14:40:50;4.63;;;1.40;;
4355;SDS011;64374;51.482;7.408;2023-08-06T14:43:18;2.03;;;1.20;;
4355;SDS011;64374;51.482;7.408;2023-08-06T14:45:46;1.43;;;1.30;;
4355;SDS011;64374;51.482;7.408;2023-08-06T14:48:21;1.53;;;1.20;;
4355;SDS011;64374;51.482;7.408;2023-08-06T14:50:50;1.20;;;1.10;;
4355;SDS011;64374;51.482;7.408;2023-08-06T14:53:21;1.53;;;1.43;;
4355;SDS011;64374;51.482;7.408;2023-08-06T14:55:51;2.57;;;1.67;;
4355;SDS011;64374;51.482;7.408;2023-08-06T14:58:19;2.20;;;1.77;;
4355;SDS011;64374;51.482;7.408;2023-08-06T15:00:47;2.10;;;2.00;;
4355;SDS011;64374;51.482;7.408;2023-08-06T15:03:18;1.67;;;1.57;;
4355;SDS011;64374;51.482;7.408;2023-08-06T15:05:56;2.50;;;2.00;;
4355;SDS011;64374;51.482;7.408;2023-08-06T15:08:29;7.07;;;5.30;;
4355;SDS011;64374;51.482;7.408;2023-08-06T15:10:57;18.70;;;13.63;;
4355;SDS011;64374;51.482;7.408;2023-08-06T15:13:30;4.60;;;2.97;;
4355;SDS011;64374;51.482;7.408;2023-08-06T15:15:58;2.90;;;2.70;;
4355;SDS011;64374;51.482;7.408;2023-08-06T15:18:34;3.60;;;2.33;;
4355;SDS011;64374;51.482;7.408;2023-08-06T15:21:02;2.90;;;2.70;;